createdAt,value
2023-09-10T00:00:34.423Z,17.1
2023-09-10T00:01:58.571Z,17.1
2023-09-10T00:03:23.632Z,17
2023-09-10T00:04:49.776Z,17.1
2023-09-10T00:06:13.815Z,17.1
2023-09-10T00:07:38.992Z,17.1
2023-09-10T00:09:03.070Z,17.1
2023-09-10T00:10:28.280Z,17.2
2023-09-10T00:11:52.288Z,17.2
2023-09-10T00:13:16.441Z,17.3
2023-09-10T00:14:40.504Z,17.3
2023-09-10T00:16:05.774Z,17.4
2023-09-10T00:17:29.727Z,17.5
2023-09-10T00:18:54.859Z,17.5
2023-09-10T00:20:19.928Z,17.6
2023-09-10T00:21:40.171Z,17.7
2023-09-10T00:23:04.330Z,17.7
2023-09-10T00:24:30.378Z,17.8
2023-09-10T00:25:57.474Z,17.9
2023-09-10T00:27:06.570Z,17.9
2023-09-10T00:28:31.345Z,17.8
2023-09-10T00:29:55.378Z,17.7
2023-09-10T00:31:19.561Z,17.5
2023-09-10T00:32:43.668Z,17.4
2023-09-10T00:34:07.727Z,17.3
2023-09-10T00:35:32.952Z,17.3
2023-09-10T00:36:56.942Z,17.2
2023-09-10T00:38:21.046Z,17.1
2023-09-10T00:39:45.125Z,17.1
2023-09-10T00:40:57.732Z,17
2023-09-10T00:42:21.830Z,17
2023-09-10T00:43:27.116Z,17
2023-09-10T00:44:54.794Z,17
2023-09-10T00:46:03.993Z,17
2023-09-10T00:47:32.555Z,17
2023-09-10T00:48:57.663Z,17
2023-09-10T00:50:03.261Z,16.9
2023-09-10T00:51:30.617Z,16.8
2023-09-10T00:52:54.752Z,16.8
2023-09-10T00:54:20.849Z,16.8
2023-09-10T00:55:45.014Z,16.7
2023-09-10T00:57:10.079Z,16.7
2023-09-10T00:58:34.209Z,16.7
2023-09-10T00:59:59.335Z,16.7
2023-09-10T01:01:27.490Z,16.7
2023-09-10T01:02:51.655Z,16.7
2023-09-10T01:04:15.616Z,16.7
2023-09-10T01:05:39.724Z,16.6
2023-09-10T01:07:03.849Z,16.6
2023-09-10T01:08:27.918Z,16.6
2023-09-10T01:09:52.058Z,16.6
2023-09-10T01:11:16.140Z,16.5
2023-09-10T01:12:40.306Z,16.5
2023-09-10T01:14:04.402Z,16.5
2023-09-10T01:15:20.977Z,16.4
2023-09-10T01:16:45.898Z,16.3
2023-09-10T01:18:09.992Z,16.2
2023-09-10T01:19:34.169Z,16.2
2023-09-10T01:20:58.230Z,16.1
2023-09-10T01:22:22.284Z,16.1
2023-09-10T01:23:42.546Z,16.1
2023-09-10T01:25:08.653Z,16.1
2023-09-10T01:26:32.907Z,16.1
2023-09-10T01:27:57.922Z,16.1
2023-09-10T01:29:22.985Z,16.1
2023-09-10T01:30:48.206Z,16.1
2023-09-10T01:32:12.215Z,16.1
2023-09-10T01:33:17.677Z,16.1
2023-09-10T01:34:44.197Z,16.2
2023-09-10T01:36:08.319Z,16.2
2023-09-10T01:37:33.415Z,16.2
2023-09-10T01:38:58.507Z,16.2
2023-09-10T01:40:22.587Z,16.2
2023-09-10T01:41:47.757Z,16.1
2023-09-10T01:43:11.796Z,16.1
2023-09-10T01:44:36.929Z,16.1
2023-09-10T01:46:01.110Z,16.1
2023-09-10T01:47:26.224Z,16.1
2023-09-10T01:48:50.223Z,16.1
2023-09-10T01:50:15.356Z,16
2023-09-10T01:51:39.437Z,16
2023-09-10T01:53:04.596Z,16
2023-09-10T01:54:28.666Z,16
2023-09-10T01:55:52.806Z,16.1
2023-09-10T01:57:16.903Z,16.1
2023-09-10T01:58:42.240Z,16.1
2023-09-10T02:00:06.192Z,16.1
2023-09-10T02:01:31.243Z,16
2023-09-10T02:02:55.478Z,16
2023-09-10T02:04:20.554Z,16
2023-09-10T02:05:25.721Z,16
2023-09-10T02:06:52.517Z,15.9
2023-09-10T02:08:17.485Z,15.9
2023-09-10T02:09:41.565Z,15.8
2023-09-10T02:10:46.940Z,15.8
2023-09-10T02:12:12.517Z,15.8
2023-09-10T02:13:37.111Z,15.8
2023-09-10T02:15:01.851Z,15.8
2023-09-10T02:16:25.909Z,15.9
2023-09-10T02:17:50.030Z,15.9
2023-09-10T02:19:14.077Z,15.9
2023-09-10T02:20:38.245Z,15.9
2023-09-10T02:22:02.691Z,15.8
2023-09-10T02:23:27.388Z,15.8
2023-09-10T02:24:51.606Z,15.8
2023-09-10T02:26:15.692Z,15.7
2023-09-10T02:27:39.708Z,15.7
2023-09-10T02:29:03.881Z,15.7
2023-09-10T02:30:27.976Z,15.7
2023-09-10T02:31:52.132Z,15.7
2023-09-10T02:33:16.199Z,15.6
2023-09-10T02:34:40.261Z,15.5
2023-09-10T02:35:56.637Z,15.5
2023-09-10T02:37:20.718Z,15.5
2023-09-10T02:38:44.846Z,15.6
2023-09-10T02:40:08.950Z,15.6
2023-09-10T02:41:33.077Z,15.5
2023-09-10T02:42:57.179Z,15.5
2023-09-10T02:44:21.312Z,15.5
2023-09-10T02:45:45.404Z,15.5
2023-09-10T02:47:09.555Z,15.5
2023-09-10T02:48:33.646Z,15.6
2023-09-10T02:49:58.740Z,15.6
2023-09-10T02:51:04.031Z,15.6
2023-09-10T02:52:30.674Z,15.6
2023-09-10T02:53:35.959Z,15.5
2023-09-10T02:55:03.658Z,15.5
2023-09-10T02:56:30.742Z,15.4
2023-09-10T02:57:56.879Z,15.4
2023-09-10T02:59:20.997Z,15.4
2023-09-10T03:00:45.101Z,15.4
2023-09-10T03:02:11.283Z,15.3
2023-09-10T03:03:35.354Z,15.3
2023-09-10T03:04:51.725Z,15.3
2023-09-10T03:06:15.823Z,15.3
2023-09-10T03:07:39.959Z,15.3
2023-09-10T03:09:04.028Z,15.3
2023-09-10T03:10:28.112Z,15.3
2023-09-10T03:11:48.369Z,15.2
2023-09-10T03:13:13.466Z,15.2
2023-09-10T03:14:22.153Z,15.3
2023-09-10T03:15:46.272Z,15.2
2023-09-10T03:17:10.383Z,15.2
2023-09-10T03:18:32.666Z,15.1
2023-09-10T03:19:56.827Z,15.1
2023-09-10T03:21:17.002Z,15.2
2023-09-10T03:22:41.099Z,15.1
2023-09-10T03:24:05.206Z,15.1
2023-09-10T03:25:29.338Z,15.1
2023-09-10T03:26:53.699Z,15.2
2023-09-10T03:28:17.545Z,15.1
2023-09-10T03:29:41.617Z,15.1
2023-09-10T03:30:54.184Z,15.1
2023-09-10T03:31:55.248Z,15
2023-09-10T03:33:00.069Z,15
2023-09-10T03:34:01.056Z,15
2023-09-10T03:35:02.105Z,15
2023-09-10T03:36:10.815Z,15
2023-09-10T03:37:23.320Z,15.1
2023-09-10T03:38:39.925Z,15.1
2023-09-10T03:39:52.245Z,15
2023-09-10T03:40:53.221Z,15
2023-09-10T03:41:54.287Z,15
2023-09-10T03:42:55.247Z,14.9
2023-09-10T03:43:56.232Z,14.9
2023-09-10T03:44:57.339Z,14.9
2023-09-10T03:45:58.231Z,14.9
2023-09-10T03:46:59.286Z,14.9
2023-09-10T03:48:00.248Z,14.9
2023-09-10T03:49:01.217Z,14.9
2023-09-10T03:50:02.383Z,14.9
2023-09-10T03:51:03.250Z,14.9
2023-09-10T03:52:04.461Z,14.9
2023-09-10T03:53:05.277Z,14.9
2023-09-10T03:54:06.224Z,14.9
2023-09-10T03:55:07.287Z,14.9
2023-09-10T03:56:08.271Z,14.9
2023-09-10T03:57:09.243Z,14.9
2023-09-10T03:58:10.217Z,14.9
2023-09-10T03:59:11.259Z,14.9
2023-09-10T04:00:12.321Z,14.8
2023-09-10T04:01:13.251Z,14.8
2023-09-10T04:02:14.324Z,14.8
2023-09-10T04:03:15.375Z,14.7
2023-09-10T04:04:16.240Z,14.7
2023-09-10T04:05:17.283Z,14.7
2023-09-10T04:06:18.255Z,14.7
2023-09-10T04:07:19.238Z,14.7
2023-09-10T04:08:20.490Z,14.7
2023-09-10T04:09:21.235Z,14.7
2023-09-10T04:10:22.251Z,14.7
2023-09-10T04:11:23.231Z,14.6
2023-09-10T04:12:24.260Z,14.6
2023-09-10T04:13:25.251Z,14.6
2023-09-10T04:14:26.232Z,14.6
2023-09-10T04:15:27.246Z,14.6
2023-09-10T04:16:28.265Z,14.6
2023-09-10T04:17:29.298Z,14.6
2023-09-10T04:18:30.260Z,14.6
2023-09-10T04:19:31.231Z,14.6
2023-09-10T04:20:32.237Z,14.6
2023-09-10T04:21:33.268Z,14.6
2023-09-10T04:22:34.239Z,14.5
2023-09-10T04:23:35.242Z,14.5
2023-09-10T04:24:36.252Z,14.5
2023-09-10T04:25:37.292Z,14.5
2023-09-10T04:26:38.246Z,14.4
2023-09-10T04:27:39.258Z,14.5
2023-09-10T04:28:40.392Z,14.5
2023-09-10T04:29:41.240Z,14.4
2023-09-10T04:30:42.288Z,14.5
2023-09-10T04:31:43.304Z,14.5
2023-09-10T04:32:44.284Z,14.5
2023-09-10T04:33:45.248Z,14.5
2023-09-10T04:34:46.286Z,14.5
2023-09-10T04:35:47.252Z,14.5
2023-09-10T04:36:49.452Z,14.5
2023-09-10T04:37:49.289Z,14.5
2023-09-10T04:38:50.262Z,14.5
2023-09-10T04:39:51.245Z,14.5
2023-09-10T04:40:52.293Z,14.5
2023-09-10T04:41:53.289Z,14.5
2023-09-10T04:42:54.317Z,14.5
2023-09-10T04:44:56.242Z,14.6
2023-09-10T04:45:57.279Z,14.6
2023-09-10T04:46:58.280Z,14.6
2023-09-10T04:47:59.298Z,14.6
2023-09-10T04:49:00.276Z,14.6
2023-09-10T04:50:01.315Z,14.6
2023-09-10T04:51:02.248Z,14.6
2023-09-10T04:52:03.332Z,14.6
2023-09-10T04:53:04.296Z,14.6
2023-09-10T04:54:05.251Z,14.6
2023-09-10T04:55:06.246Z,14.6
2023-09-10T04:56:07.274Z,14.7
2023-09-10T04:57:08.290Z,14.7
2023-09-10T04:58:09.286Z,14.7
2023-09-10T04:59:10.296Z,14.7
2023-09-10T05:00:11.249Z,14.7
2023-09-10T05:01:12.301Z,14.8
2023-09-10T05:02:13.457Z,14.7
2023-09-10T05:03:14.359Z,14.8
2023-09-10T05:04:15.318Z,14.8
2023-09-10T05:05:16.316Z,14.8
2023-09-10T05:06:17.280Z,14.8
2023-09-10T05:07:18.339Z,14.8
2023-09-10T05:08:19.293Z,14.8
2023-09-10T05:09:20.538Z,14.8
2023-09-10T05:10:21.274Z,14.9
2023-09-10T05:11:22.303Z,14.9
2023-09-10T05:12:23.265Z,14.9
2023-09-10T05:13:24.279Z,15
2023-09-10T05:14:25.351Z,15
2023-09-10T05:15:26.264Z,15
2023-09-10T05:16:27.307Z,15.1
2023-09-10T05:17:28.350Z,15.1
2023-09-10T05:18:29.293Z,15.1
2023-09-10T05:19:30.266Z,15.2
2023-09-10T05:20:31.264Z,15.2
2023-09-10T05:21:32.282Z,15.2
2023-09-10T05:22:33.310Z,15.3
2023-09-10T05:23:34.275Z,15.3
2023-09-10T05:24:35.311Z,15.4
2023-09-10T05:25:36.277Z,15.4
2023-09-10T05:26:37.277Z,15.5
2023-09-10T05:27:38.285Z,15.5
2023-09-10T05:28:39.385Z,15.6
2023-09-10T05:29:40.286Z,15.6
2023-09-10T05:30:41.294Z,15.6
2023-09-10T05:31:42.532Z,15.6
2023-09-10T05:32:43.348Z,15.7
2023-09-10T05:33:44.276Z,15.7
2023-09-10T05:34:45.348Z,15.8
2023-09-10T05:35:46.284Z,15.8
2023-09-10T05:36:47.279Z,15.8
2023-09-10T05:37:48.307Z,15.9
2023-09-10T05:38:49.265Z,15.9
2023-09-10T05:39:50.314Z,16
2023-09-10T05:40:51.286Z,16
2023-09-10T05:41:52.290Z,16.1
2023-09-10T05:42:53.287Z,16.1
2023-09-10T05:43:54.305Z,16.2
2023-09-10T05:44:55.327Z,16.3
2023-09-10T05:45:56.303Z,16.4
2023-09-10T05:46:57.280Z,16.5
2023-09-10T05:47:58.313Z,16.6
2023-09-10T05:48:59.298Z,16.7
2023-09-10T05:50:00.397Z,16.9
2023-09-10T05:51:01.296Z,17
2023-09-10T05:52:10.044Z,17.2
2023-09-10T05:53:26.453Z,17.3
2023-09-10T05:54:52.614Z,17.4
2023-09-10T05:56:12.908Z,17.5
2023-09-10T05:57:38.905Z,17.7
2023-09-10T05:59:05.021Z,17.9
2023-09-10T06:00:13.991Z,17.9
2023-09-10T06:01:39.906Z,18
2023-09-10T06:03:00.132Z,18
2023-09-10T06:04:16.619Z,18.1
2023-09-10T06:05:21.445Z,18.2
2023-09-10T06:06:30.068Z,18.3
2023-09-10T06:07:53.388Z,18.3
2023-09-10T06:09:05.955Z,18.3
2023-09-10T06:10:18.454Z,18.4
2023-09-10T06:11:45.550Z,18.4
2023-09-10T06:13:05.791Z,18.4
2023-09-10T06:14:15.516Z,18.6
2023-09-10T06:15:28.106Z,18.6
2023-09-10T06:16:36.771Z,18.6
2023-09-10T06:17:45.474Z,18.6
2023-09-10T06:18:54.189Z,18.7
2023-09-10T06:20:00.608Z,18.8
2023-09-10T06:21:03.849Z,18.8
2023-09-10T06:22:08.704Z,18.9
2023-09-10T06:23:21.370Z,19
2023-09-10T06:24:33.929Z,19
2023-09-10T06:25:38.679Z,19
2023-09-10T06:26:51.241Z,18.9
2023-09-10T06:28:07.642Z,18.7
2023-09-10T06:29:20.271Z,18.7
2023-09-10T06:30:32.784Z,18.8
2023-09-10T06:31:49.260Z,18.8
2023-09-10T06:33:09.622Z,18.9
2023-09-10T06:34:35.513Z,19.1
2023-09-10T06:35:51.904Z,19.2
2023-09-10T06:37:08.877Z,19.3
2023-09-10T06:38:29.984Z,19.4
2023-09-10T06:39:55.732Z,19.5
2023-09-10T06:41:19.811Z,19.5
2023-09-10T06:42:40.069Z,19.5
2023-09-10T06:44:04.328Z,19.5
2023-09-10T06:45:31.717Z,19.6
2023-09-10T06:46:57.441Z,19.6
2023-09-10T06:48:17.643Z,19.6
2023-09-10T06:49:43.357Z,19.6
2023-09-10T06:51:08.861Z,19.7
2023-09-10T06:52:35.018Z,19.8
2023-09-10T06:54:00.111Z,19.9
2023-09-10T06:55:26.207Z,20
2023-09-10T06:56:53.242Z,20.1
2023-09-10T06:58:18.387Z,20.2
2023-09-10T06:59:27.095Z,20.3
2023-09-10T07:00:53.262Z,20.3
2023-09-10T07:02:19.346Z,20.4
2023-09-10T07:03:28.574Z,20.6
2023-09-10T07:04:45.597Z,20.8
2023-09-10T07:06:10.634Z,21
2023-09-10T07:07:34.638Z,21.3
2023-09-10T07:08:58.738Z,21.4
2023-09-10T07:10:22.844Z,21.5
2023-09-10T07:11:47.035Z,21.5
2023-09-10T07:13:11.125Z,21.5
2023-09-10T07:14:35.185Z,21.6
2023-09-10T07:15:59.287Z,21.6
2023-09-10T07:17:23.400Z,21.4
2023-09-10T07:18:47.489Z,21.4
2023-09-10T07:20:11.604Z,21.3
2023-09-10T07:21:35.788Z,21.4
2023-09-10T07:22:59.776Z,21.5
2023-09-10T07:24:25.906Z,21.7
2023-09-10T07:25:50.046Z,21.9
2023-09-10T07:27:02.600Z,22.1
2023-09-10T07:28:22.849Z,22.3
2023-09-10T07:29:27.712Z,22.4
2023-09-10T07:30:51.787Z,22.5
2023-09-10T07:32:16.924Z,22.6
2023-09-10T07:33:40.995Z,22.7
2023-09-10T07:35:05.159Z,22.8
2023-09-10T07:36:29.199Z,22.8
2023-09-10T07:37:53.322Z,22.9
2023-09-10T07:39:17.414Z,23
2023-09-10T07:40:41.647Z,23.1
2023-09-10T07:41:54.233Z,23.2
2023-09-10T07:43:04.216Z,23.4
2023-09-10T07:44:28.120Z,23.5
2023-09-10T07:45:52.207Z,23.7
2023-09-10T07:47:18.306Z,23.8
2023-09-10T07:48:35.053Z,23.8
2023-09-10T07:49:52.393Z,24
2023-09-10T07:51:17.186Z,24.1
2023-09-10T07:52:41.287Z,24.2
2023-09-10T07:54:07.404Z,24.3
2023-09-10T07:55:32.498Z,24.4
2023-09-10T07:56:57.716Z,24.4
2023-09-10T07:58:21.892Z,24.4
2023-09-10T07:59:42.014Z,24.3
2023-09-10T08:00:42.975Z,24.1
2023-09-10T08:01:51.680Z,23.9
2023-09-10T08:03:11.995Z,23.7
2023-09-10T08:04:16.826Z,23.8
2023-09-10T08:05:41.915Z,23.9
2023-09-10T08:07:07.038Z,24.2
2023-09-10T08:08:23.492Z,24.7
2023-09-10T08:09:47.673Z,24.9
2023-09-10T08:11:11.677Z,25
2023-09-10T08:12:35.773Z,25
2023-09-10T08:13:59.906Z,25.2
2023-09-10T08:15:23.969Z,25.4
2023-09-10T08:16:48.086Z,25.6
2023-09-10T08:18:12.364Z,25.7
2023-09-10T08:19:36.322Z,26.1
2023-09-10T08:20:56.793Z,26.3
2023-09-10T08:22:21.053Z,26.5
2023-09-10T08:23:26.656Z,26.7
2023-09-10T08:24:31.822Z,26.8
2023-09-10T08:25:56.498Z,26.9
2023-09-10T08:27:09.043Z,27
2023-09-10T08:28:21.587Z,26.6
2023-09-10T08:29:34.587Z,25.9
2023-09-10T08:30:59.261Z,25.7
2023-09-10T08:32:23.375Z,25.6
2023-09-10T08:33:32.052Z,25.5
2023-09-10T08:34:33.039Z,25.4
2023-09-10T08:35:33.996Z,25.2
2023-09-10T08:36:38.875Z,25.1
2023-09-10T08:37:53.465Z,25.1
2023-09-10T08:38:58.296Z,25.1
2023-09-10T08:40:10.905Z,25.1
2023-09-10T08:41:15.706Z,25.2
2023-09-10T08:42:35.983Z,25.2
2023-09-10T08:43:44.661Z,25.4
2023-09-10T08:44:45.639Z,25.6
2023-09-10T08:46:08.921Z,25.6
2023-09-10T08:47:33.020Z,25.7
2023-09-10T08:48:49.457Z,25.9
2023-09-10T08:50:13.559Z,26.2
2023-09-10T08:51:26.058Z,26.7
2023-09-10T08:52:35.012Z,26.7
2023-09-10T08:53:47.341Z,26.8
2023-09-10T08:55:11.457Z,26.9
2023-09-10T08:56:34.679Z,27
2023-09-10T08:57:56.932Z,27.1
2023-09-10T08:59:09.597Z,27.2
2023-09-10T09:00:26.970Z,27.2
2023-09-10T09:01:56.025Z,26.9
2023-09-10T09:03:23.315Z,26.8
2023-09-10T09:04:47.309Z,26.4
2023-09-10T09:06:11.349Z,26.2
2023-09-10T09:07:32.609Z,26.3
2023-09-10T09:08:37.707Z,26.3
2023-09-10T09:09:42.294Z,26.2
2023-09-10T09:10:47.183Z,26.2
2023-09-10T09:12:03.583Z,26.2
2023-09-10T09:13:19.953Z,26.3
2023-09-10T09:14:36.443Z,26.4
2023-09-10T09:16:02.478Z,26.5
2023-09-10T09:17:18.914Z,26.8
2023-09-10T09:18:35.398Z,27.1
2023-09-10T09:19:51.675Z,27.1
2023-09-10T09:21:09.070Z,27.2
2023-09-10T09:22:21.654Z,27.2
2023-09-10T09:23:47.784Z,27.2
2023-09-10T09:25:04.245Z,27.1
2023-09-10T09:26:23.563Z,27
2023-09-10T09:27:28.383Z,26.9
2023-09-10T09:28:51.809Z,26.8
2023-09-10T09:30:15.778Z,27
2023-09-10T09:31:41.170Z,27.4
2023-09-10T09:32:53.694Z,27.6
2023-09-10T09:34:06.237Z,27.8
2023-09-10T09:35:30.446Z,27.9
2023-09-10T09:36:55.464Z,28.1
2023-09-10T09:38:15.753Z,28.4
2023-09-10T09:39:32.421Z,28.6
2023-09-10T09:40:59.582Z,28.6
2023-09-10T09:42:03.091Z,28.8
2023-09-10T09:43:17.112Z,28.6
2023-09-10T09:44:29.086Z,28.5
2023-09-10T09:45:43.045Z,28.2
2023-09-10T09:46:52.860Z,28
2023-09-10T09:47:53.757Z,27.9
2023-09-10T09:48:54.791Z,27.8
2023-09-10T09:49:59.698Z,27.6
2023-09-10T09:51:20.011Z,27.6
2023-09-10T09:52:21.018Z,27.8
2023-09-10T09:53:22.018Z,27.8
2023-09-10T09:54:22.979Z,27.7
2023-09-10T09:55:28.845Z,27.7
2023-09-10T09:56:41.465Z,27.8
2023-09-10T09:57:56.006Z,27.9
2023-09-10T09:59:00.879Z,28.1
2023-09-10T10:00:09.645Z,28.5
2023-09-10T10:01:18.323Z,28.7
2023-09-10T10:02:27.095Z,29.1
2023-09-10T10:03:43.484Z,29.4
2023-09-10T10:04:48.321Z,29.6
2023-09-10T10:05:49.173Z,29.7
2023-09-10T10:06:50.226Z,29.7
2023-09-10T10:07:52.665Z,29.5
2023-09-10T10:08:59.905Z,29.3
2023-09-10T10:10:00.953Z,29.1
2023-09-10T10:11:01.940Z,28.9
2023-09-10T10:12:10.592Z,28.5
2023-09-10T10:13:11.611Z,28
2023-09-10T10:14:12.614Z,27.6
2023-09-10T10:15:13.607Z,27.5
2023-09-10T10:16:14.655Z,27.3
2023-09-10T10:17:15.644Z,27.1
2023-09-10T10:18:20.515Z,27
2023-09-10T10:19:21.443Z,27.2
2023-09-10T10:20:22.467Z,27.2
2023-09-10T10:21:23.441Z,27.5
2023-09-10T10:22:24.505Z,27.5
2023-09-10T10:23:52.630Z,27.7
2023-09-10T10:25:12.850Z,27.8
2023-09-10T10:26:31.419Z,28.1
2023-09-10T10:27:47.704Z,28.8
2023-09-10T10:28:56.340Z,29.1
2023-09-10T10:29:57.329Z,29.1
2023-09-10T10:31:06.053Z,29.1
2023-09-10T10:32:18.621Z,29.1
2023-09-10T10:33:31.212Z,29.4
2023-09-10T10:34:32.148Z,29.6
2023-09-10T10:35:33.173Z,29.8
2023-09-10T10:36:42.018Z,29.9
2023-09-10T10:38:02.123Z,30
2023-09-10T10:39:12.862Z,30.2
2023-09-10T10:40:14.031Z,30.3
2023-09-10T10:41:22.548Z,30.2
2023-09-10T10:42:31.312Z,30.2
2023-09-10T10:43:40.085Z,30.3
2023-09-10T10:44:44.788Z,30.3
2023-09-10T10:45:45.814Z,30.2
2023-09-10T10:46:46.745Z,30
2023-09-10T10:47:51.637Z,29.8
2023-09-10T10:49:04.389Z,29.8
2023-09-10T10:50:17.117Z,29.8
2023-09-10T10:51:49.906Z,29.9
2023-09-10T10:52:56.564Z,30
2023-09-10T10:54:05.321Z,30.4
2023-09-10T10:55:13.962Z,30.6
2023-09-10T10:56:34.263Z,30.8
2023-09-10T10:57:47.245Z,31.3
2023-09-10T10:59:04.228Z,31.5
2023-09-10T11:00:13.065Z,32
2023-09-10T11:01:33.149Z,32.2
2023-09-10T11:02:49.592Z,32.2
2023-09-10T11:04:09.835Z,32.3
2023-09-10T11:05:14.751Z,32.2
2023-09-10T11:06:19.502Z,32.1
2023-09-10T11:07:33.070Z,32.2
2023-09-10T11:08:37.960Z,32.3
2023-09-10T11:09:54.438Z,32
2023-09-10T11:11:11.790Z,31.8
2023-09-10T11:12:32.004Z,31.7
2023-09-10T11:13:39.648Z,31.7
2023-09-10T11:15:04.002Z,31.6
2023-09-10T11:16:28.455Z,31.5
2023-09-10T11:17:41.676Z,31.5
2023-09-10T11:18:54.211Z,31.5
2023-09-10T11:20:20.874Z,31.6
2023-09-10T11:21:35.703Z,31.8
2023-09-10T11:22:55.989Z,31.9
2023-09-10T11:24:08.505Z,32.1
2023-09-10T11:25:17.172Z,32.3
2023-09-10T11:26:22.103Z,32.4
2023-09-10T11:27:35.734Z,32.1
2023-09-10T11:28:59.818Z,32
2023-09-10T11:30:23.850Z,31.9
2023-09-10T11:31:40.575Z,32
2023-09-10T11:32:56.692Z,32.1
2023-09-10T11:34:19.928Z,32.2
2023-09-10T11:35:40.190Z,32.2
2023-09-10T11:37:04.442Z,32.3
2023-09-10T11:38:20.690Z,32.3
2023-09-10T11:39:45.818Z,32.1
2023-09-10T11:40:50.869Z,32
2023-09-10T11:42:11.961Z,32
2023-09-10T11:43:28.273Z,32.2
2023-09-10T11:44:33.293Z,32
2023-09-10T11:45:37.999Z,31.8
2023-09-10T11:46:47.051Z,31.5
2023-09-10T11:48:01.401Z,31
2023-09-10T11:49:06.237Z,30.6
2023-09-10T11:50:14.894Z,30.4
2023-09-10T11:51:19.761Z,30.4
2023-09-10T11:52:37.054Z,30.4
2023-09-10T11:53:43.056Z,30.5
2023-09-10T11:54:59.476Z,30.5
2023-09-10T11:56:15.966Z,30.6
2023-09-10T11:57:28.557Z,30.8
2023-09-10T11:58:33.291Z,30.8
2023-09-10T11:59:58.416Z,30.8
2023-09-10T12:01:10.967Z,30.9
2023-09-10T12:02:19.780Z,30.9
2023-09-10T12:03:36.123Z,30.9
2023-09-10T12:04:52.472Z,30.9
2023-09-10T12:06:16.586Z,30.9
2023-09-10T12:07:32.973Z,31.1
2023-09-10T12:08:53.216Z,31.3
2023-09-10T12:10:13.834Z,31.7
2023-09-10T12:11:26.343Z,31.9
2023-09-10T12:12:34.876Z,32.2
2023-09-10T12:13:36.272Z,32
2023-09-10T12:14:41.762Z,31.9
2023-09-10T12:15:59.214Z,31.8
2023-09-10T12:17:23.314Z,31.7
2023-09-10T12:18:48.397Z,31.6
2023-09-10T12:20:13.589Z,31.7
2023-09-10T12:21:22.157Z,31.8
2023-09-10T12:22:27.020Z,31.3
2023-09-10T12:23:39.885Z,30.9
2023-09-10T12:24:48.316Z,30.8
2023-09-10T12:25:53.144Z,30.8
2023-09-10T12:27:01.844Z,30.8
2023-09-10T12:28:22.105Z,30.9
2023-09-10T12:29:42.471Z,31.1
2023-09-10T12:30:51.423Z,31.2
2023-09-10T12:32:03.956Z,31.2
2023-09-10T12:33:20.181Z,31.2
2023-09-10T12:34:30.880Z,31.3
2023-09-10T12:35:58.985Z,31.3
2023-09-10T12:37:13.580Z,31.4
2023-09-10T12:38:26.136Z,31.3
2023-09-10T12:39:42.483Z,31.4
2023-09-10T12:41:04.767Z,31.5
2023-09-10T12:42:21.186Z,31.5
2023-09-10T12:43:33.911Z,31.6
2023-09-10T12:44:39.829Z,31.9
2023-09-10T12:45:59.979Z,32
2023-09-10T12:47:17.847Z,32
2023-09-10T12:48:43.883Z,32
2023-09-10T12:50:08.676Z,31.9
2023-09-10T12:51:30.856Z,31.9
2023-09-10T12:52:55.372Z,31.7
2023-09-10T12:54:19.048Z,31.6
2023-09-10T12:55:39.402Z,31.3
2023-09-10T12:56:51.840Z,31.2
2023-09-10T12:58:14.113Z,31.1
2023-09-10T12:59:35.406Z,31
2023-09-10T13:00:55.754Z,31.1
2023-09-10T13:02:04.607Z,31.4
2023-09-10T13:03:05.418Z,31.6
2023-09-10T13:04:14.085Z,31.6
2023-09-10T13:05:18.919Z,31.6
2023-09-10T13:06:41.148Z,31.7
2023-09-10T13:07:49.855Z,31.8
2023-09-10T13:08:54.715Z,31.9
2023-09-10T13:09:55.691Z,32.1
2023-09-10T13:11:10.327Z,32.2
2023-09-10T13:12:18.916Z,32.1
2023-09-10T13:13:23.778Z,32
2023-09-10T13:14:38.528Z,31.8
2023-09-10T13:15:47.061Z,31.7
2023-09-10T13:17:11.212Z,31.6
2023-09-10T13:18:18.057Z,31.7
2023-09-10T13:19:42.129Z,31.7
2023-09-10T13:21:06.251Z,31.9
2023-09-10T13:22:26.692Z,32
2023-09-10T13:23:47.798Z,32.1
2023-09-10T13:25:02.319Z,32.3
2023-09-10T13:26:28.473Z,32.2
2023-09-10T13:27:44.813Z,32
2023-09-10T13:28:54.993Z,31.9
2023-09-10T13:30:17.844Z,31.8
2023-09-10T13:31:41.169Z,31.6
2023-09-10T13:32:46.001Z,31.6
2023-09-10T13:34:02.385Z,31.6
2023-09-10T13:35:18.720Z,31.6
2023-09-10T13:36:27.474Z,31.7
2023-09-10T13:37:51.851Z,31.8
2023-09-10T13:39:15.646Z,31.8
2023-09-10T13:40:33.526Z,32
2023-09-10T13:41:55.347Z,32
2023-09-10T13:43:00.188Z,32.1
2023-09-10T13:44:12.798Z,32.3
2023-09-10T13:45:34.996Z,32.4
2023-09-10T13:46:59.135Z,32.5
2023-09-10T13:48:23.257Z,32.7
2023-09-10T13:49:48.382Z,32.8
2023-09-10T13:51:13.438Z,32.8
2023-09-10T13:52:38.520Z,32.8
2023-09-10T13:54:03.637Z,32.9
2023-09-10T13:55:20.040Z,33
2023-09-10T13:56:25.479Z,33.2
2023-09-10T13:57:50.054Z,33.3
2023-09-10T13:59:02.786Z,33.5
2023-09-10T14:00:23.390Z,33.6
2023-09-10T14:01:40.309Z,33.9
2023-09-10T14:03:04.391Z,34
2023-09-10T14:04:24.938Z,34.1
2023-09-10T14:05:37.506Z,34.1
2023-09-10T14:07:03.289Z,34
2023-09-10T14:08:30.411Z,33.8
2023-09-10T14:09:50.696Z,33.7
2023-09-10T14:11:17.804Z,33.7
2023-09-10T14:12:43.117Z,33.7
2023-09-10T14:14:08.985Z,33.5
2023-09-10T14:15:33.058Z,33.4
2023-09-10T14:16:58.225Z,33.3
2023-09-10T14:18:23.358Z,33.2
2023-09-10T14:19:32.332Z,33.2
2023-09-10T14:20:42.436Z,33.3
2023-09-10T14:22:08.822Z,33.3
2023-09-10T14:23:33.961Z,33.2
2023-09-10T14:24:41.803Z,33.2
2023-09-10T14:26:07.878Z,33.1
2023-09-10T14:27:16.594Z,33.1
2023-09-10T14:28:43.803Z,32.9
2023-09-10T14:29:48.572Z,32.7
2023-09-10T14:31:15.639Z,32.6
2023-09-10T14:32:40.839Z,32.7
2023-09-10T14:34:06.891Z,32.8
2023-09-10T14:35:11.984Z,32.8
2023-09-10T14:36:36.838Z,32.9
2023-09-10T14:38:02.052Z,32.9
2023-09-10T14:39:18.329Z,32.9
2023-09-10T14:40:44.425Z,32.9
2023-09-10T14:42:09.524Z,33
2023-09-10T14:43:18.286Z,33.1
2023-09-10T14:44:42.441Z,33.3
2023-09-10T14:46:07.558Z,33.3
2023-09-10T14:47:24.883Z,33.3
2023-09-10T14:48:48.980Z,33
2023-09-10T14:50:05.452Z,32.8
2023-09-10T14:51:25.833Z,32.7
2023-09-10T14:52:49.778Z,32.7
2023-09-10T14:54:10.006Z,32.9
2023-09-10T14:55:37.108Z,33
2023-09-10T14:57:01.223Z,33.2
2023-09-10T14:58:25.340Z,33.2
2023-09-10T14:59:51.469Z,33.2
2023-09-10T15:00:56.259Z,33.2
2023-09-10T15:02:25.594Z,33.2
2023-09-10T15:03:34.270Z,33.5
2023-09-10T15:04:58.251Z,33.4
2023-09-10T15:06:10.764Z,33.1
2023-09-10T15:07:34.873Z,32.7
2023-09-10T15:08:59.000Z,32.5
2023-09-10T15:10:24.143Z,32.3
2023-09-10T15:11:49.331Z,32.3
2023-09-10T15:13:16.336Z,32.2
2023-09-10T15:14:29.332Z,32.3
2023-09-10T15:15:46.957Z,32.2
2023-09-10T15:17:11.439Z,32
2023-09-10T15:18:38.513Z,31.8
2023-09-10T15:19:52.526Z,31.7
2023-09-10T15:21:05.629Z,31.8
2023-09-10T15:22:18.173Z,32
2023-09-10T15:23:44.295Z,32.1
2023-09-10T15:25:04.687Z,32.3
2023-09-10T15:26:17.223Z,32.4
2023-09-10T15:27:29.870Z,32.3
2023-09-10T15:28:50.490Z,32.4
2023-09-10T15:30:07.474Z,32.3
2023-09-10T15:31:27.170Z,32.4
2023-09-10T15:32:52.028Z,32.3
2023-09-10T15:34:16.213Z,32.2
2023-09-10T15:35:40.216Z,32
2023-09-10T15:37:04.284Z,32
2023-09-10T15:38:28.368Z,32.1
2023-09-10T15:39:53.520Z,32.2
2023-09-10T15:41:17.980Z,32.2
2023-09-10T15:42:43.734Z,32.2
2023-09-10T15:44:07.949Z,32.1
2023-09-10T15:45:31.962Z,31.9
2023-09-10T15:46:57.040Z,31.9
2023-09-10T15:48:21.190Z,31.8
2023-09-10T15:49:33.704Z,31.6
2023-09-10T15:50:58.804Z,31.5
2023-09-10T15:52:21.167Z,31.5
2023-09-10T15:53:45.194Z,31.4
2023-09-10T15:55:09.312Z,31.4
2023-09-10T15:56:35.433Z,31.3
2023-09-10T15:57:47.954Z,31.2
2023-09-10T15:59:00.612Z,31.2
2023-09-10T16:00:16.908Z,31
2023-09-10T16:01:30.649Z,30.8
2023-09-10T16:02:50.865Z,30.8
2023-09-10T16:04:14.917Z,30.8
2023-09-10T16:05:39.067Z,30.7
2023-09-10T16:06:55.393Z,30.7
2023-09-10T16:08:21.468Z,30.6
2023-09-10T16:09:45.611Z,30.6
2023-09-10T16:11:10.734Z,30.5
2023-09-10T16:12:23.208Z,30.4
2023-09-10T16:13:31.949Z,30.2
2023-09-10T16:14:48.317Z,30.2
2023-09-10T16:16:08.661Z,30.2
2023-09-10T16:17:26.001Z,30
2023-09-10T16:18:47.237Z,29.9
2023-09-10T16:20:10.588Z,29.8
2023-09-10T16:21:31.233Z,29.8
2023-09-10T16:22:53.429Z,29.6
2023-09-10T16:24:20.134Z,29.5
2023-09-10T16:25:36.847Z,29.5
2023-09-10T16:27:01.663Z,29.4
2023-09-10T16:28:25.828Z,29.3
2023-09-10T16:29:49.877Z,29.2
2023-09-10T16:31:15.085Z,29.1
2023-09-10T16:32:28.055Z,29
2023-09-10T16:33:48.782Z,28.8
2023-09-10T16:35:12.950Z,28.7
2023-09-10T16:36:37.014Z,28.5
2023-09-10T16:37:42.231Z,28.5
2023-09-10T16:39:06.981Z,28.4
2023-09-10T16:40:31.051Z,28.3
2023-09-10T16:41:47.521Z,28.2
2023-09-10T16:43:14.583Z,28.1
2023-09-10T16:44:19.835Z,28
2023-09-10T16:45:44.528Z,27.8
2023-09-10T16:47:09.832Z,27.8
2023-09-10T16:48:34.776Z,27.7
2023-09-10T16:50:01.966Z,27.6
2023-09-10T16:51:27.980Z,27.5